RCFN

Taitung Airport

Taitung City, Taiwan
TAF RCFN 161700Z 1618/1718 36008KT 9999 FEW015 BKN032 TEMPO 1620/1702 5000 SHRA FEW012 FEW018CB BKN020 BECMG 1700/1702 03013KT TEMPO 1709/1713 FEW012 FEW015TCU BKN020 BECMG 1710/1712 35005KT
Issued Valid From Valid To
Jul-16 @ 17:00 UTC
(3 hours ago)
Jul-16 @ 18:00 UTC
(2 hours ago)
Jul-17 @ 18:00 UTC
(in 22 hours)
Jul-16 @ 18:00 to Jul-17 @ 00:00
TAF RCFN 161700Z 1618/1718 36008KT 9999 FEW015 BKN032
Wind Visibility Clouds
360° at 8 knots 10,000+ meters
  • Few at 1,500' AGL
  • Broken at 3,200' AGL
Temporary Jul-16 @ 20:00 to Jul-17 @ 02:00
TEMPO 1620/1702 5000 SHRA FEW012 FEW018CB BKN020
Visibility Clouds Conditions
5,005 meters
  • Few at 1,200' AGL
  • Few at 1,800' AGL
  • Broken at 2,000' AGL
  • Rain
Becoming Jul-17 @ 00:00 to Jul-17 @ 10:00
BECMG 1700/1702 03013KT
Wind Visibility Clouds
30° at 13 knots 10,000+ meters
  • Few at 1,500' AGL
  • Broken at 3,200' AGL
Temporary Jul-17 @ 09:00 to Jul-17 @ 13:00
TEMPO 1709/1713 FEW012 FEW015TCU BKN020
Clouds
  • Few at 1,200' AGL
  • Few at 1,500' AGL
  • Broken at 2,000' AGL
Becoming Jul-17 @ 10:00 to Jul-17 @ 18:00
BECMG 1710/1712 35005KT
Wind Visibility Clouds
350° at 5 knots 10,000+ meters
  • Few at 1,500' AGL
  • Broken at 3,200' AGL
TAF RCFN 161700Z 1618/1718 36008KT 9999 FEW015 BKN032 TEMPO 1620/1702 5000 SHRA FEW012 FEW018CB BKN020 BECMG 1700/1702 03013KT TEMPO 1709/1713 FEW012 FEW015TCU BKN020 BECMG 1710/1712 35005KT
Issued Jul-16 @ 17:00 UTC
(3 hours ago)
Valid From Jul-16 @ 18:00 UTC
(2 hours ago)
Valid To Jul-17 @ 18:00 UTC
(in 22 hours)
Jul-16 @ 18:00 - Jul-17 @ 00:00
Wind Visibility
360° at 8 knots 10,000+ meters
Clouds
  • Few at 1,500' AGL
  • Broken at 3,200' AGL
Temporary Jul-16 @ 20:00 - Jul-17 @ 02:00
Clouds
  • Few at 1,200' AGL
  • Few at 1,800' AGL
  • Broken at 2,000' AGL
Conditions
  • Rain
Becoming Jul-17 @ 00:00 - Jul-17 @ 10:00
Wind Visibility
30° at 13 knots 10,000+ meters
Clouds
  • Few at 1,500' AGL
  • Broken at 3,200' AGL
Temporary Jul-17 @ 09:00 - Jul-17 @ 13:00
Clouds
  • Few at 1,200' AGL
  • Few at 1,500' AGL
  • Broken at 2,000' AGL
Becoming Jul-17 @ 10:00 - Jul-17 @ 18:00
Wind Visibility
350° at 5 knots 10,000+ meters
Clouds
  • Few at 1,500' AGL
  • Broken at 3,200' AGL